createdAt,value
2019-05-12T00:04:08.187Z,1022.1
2019-05-12T00:09:08.340Z,1022.2
2019-05-12T00:14:08.592Z,1022.22
2019-05-12T00:18:08.838Z,1022.21
2019-05-12T00:24:08.001Z,1022.29
2019-05-12T00:29:07.668Z,1022.28
2019-05-12T00:34:07.739Z,1022.33
2019-05-12T00:39:08.542Z,1022.36
2019-05-12T00:44:08.169Z,1022.4
2019-05-12T00:49:07.955Z,1022.48
2019-05-12T00:54:08.848Z,1022.51
2019-05-12T00:58:08.146Z,1022.66
2019-05-12T01:03:09.878Z,1022.67
2019-05-12T01:08:08.853Z,1022.74
2019-05-12T01:13:08.486Z,1022.77
2019-05-12T01:18:06.150Z,1022.84
2019-05-12T01:23:08.447Z,1022.91
2019-05-12T01:28:08.073Z,1022.94
2019-05-12T01:33:08.482Z,1022.97
2019-05-12T01:38:07.943Z,1023.03
2019-05-12T01:42:06.139Z,1023.08
2019-05-12T01:47:08.310Z,1023.18
2019-05-12T01:52:08.663Z,1023.2
2019-05-12T01:57:08.077Z,1023.26
2019-05-12T02:02:08.569Z,1023.31
2019-05-12T02:07:08.179Z,1023.39
2019-05-12T02:12:08.110Z,1023.44
2019-05-12T02:17:08.772Z,1023.49
2019-05-12T02:21:08.280Z,1023.5
2019-05-12T02:26:08.214Z,1023.59
2019-05-12T02:31:09.215Z,1023.56
2019-05-12T02:36:06.719Z,1023.67
2019-05-12T02:41:06.244Z,1023.75
2019-05-12T02:46:06.622Z,1023.73
2019-05-12T02:51:06.828Z,1023.71
2019-05-12T02:56:06.105Z,1023.78
2019-05-12T03:00:08.125Z,1023.85
2019-05-12T03:05:06.309Z,1023.96
2019-05-12T03:10:05.960Z,1024.04
2019-05-12T03:15:07.380Z,1024.08
2019-05-12T03:20:06.704Z,1024.21
2019-05-12T03:25:14.878Z,1024.19
2019-05-12T03:30:11.189Z,1024.25
2019-05-12T03:34:09.962Z,1024.35
2019-05-12T03:40:06.287Z,1024.47
2019-05-12T03:44:06.630Z,1024.5
2019-05-12T03:49:06.160Z,1024.53
2019-05-12T03:54:06.257Z,1024.61
2019-05-12T03:59:07.265Z,1024.65
2019-05-12T04:04:06.130Z,1024.73
2019-05-12T04:09:06.975Z,1024.77
2019-05-12T04:14:06.375Z,1024.83
2019-05-12T04:18:07.181Z,1024.89
2019-05-12T04:23:07.074Z,1025.07
2019-05-12T04:28:06.010Z,1025.19
2019-05-12T04:33:06.542Z,1025.3
2019-05-12T04:38:06.702Z,1025.48
2019-05-12T04:43:06.864Z,1025.61
2019-05-12T04:48:06.445Z,1025.73
2019-05-12T04:52:07.181Z,1025.84
2019-05-12T04:53:06.825Z,1025.84
2019-05-12T04:57:06.456Z,1025.86
2019-05-12T05:02:06.374Z,1025.99
2019-05-12T05:07:06.708Z,1026.1
2019-05-12T05:12:06.454Z,1026.19
2019-05-12T05:17:06.646Z,1026.29
2019-05-12T05:22:05.968Z,1026.41
2019-05-12T05:27:06.173Z,1026.53
2019-05-12T05:31:06.746Z,1026.62
2019-05-12T05:36:08.761Z,1026.71
2019-05-12T05:41:10.373Z,1026.76
2019-05-12T05:46:07.951Z,1026.95
2019-05-12T05:51:09.011Z,1026.91
2019-05-12T05:56:06.495Z,1027
2019-05-12T06:00:17.113Z,1027.07
2019-05-12T06:01:09.073Z,1027.07
2019-05-12T06:05:06.508Z,1027.21
2019-05-12T06:10:06.975Z,1027.31
2019-05-12T06:15:08.888Z,1027.49
2019-05-12T06:20:06.377Z,1027.52
2019-05-12T06:25:06.609Z,1027.55
2019-05-12T06:30:08.092Z,1027.56
2019-05-12T06:34:14.996Z,1027.66
2019-05-12T06:35:06.154Z,1027.66
2019-05-12T06:40:06.588Z,1027.86
2019-05-12T06:44:08.698Z,1027.94
2019-05-12T06:49:12.587Z,1027.92
2019-05-12T06:54:11.758Z,1028
2019-05-12T06:59:10.242Z,1028.1
2019-05-12T07:04:09.843Z,1028.15
2019-05-12T07:08:06.857Z,1028.21
2019-05-12T07:13:06.751Z,1028.18
2019-05-12T07:18:06.017Z,1028.28
2019-05-12T07:23:06.333Z,1028.45
2019-05-12T07:28:07.711Z,1028.45
2019-05-12T07:33:06.665Z,1028.44
2019-05-12T07:38:05.963Z,1028.47
2019-05-12T07:42:07.462Z,1028.41
2019-05-12T07:47:06.384Z,1028.51
2019-05-12T07:52:06.757Z,1028.54
2019-05-12T07:57:11.632Z,1028.44
2019-05-12T08:02:06.705Z,1028.45
2019-05-12T08:07:06.165Z,1028.46
2019-05-12T08:12:09.510Z,1028.55
2019-05-12T08:17:10.597Z,1028.6
2019-05-12T08:21:06.639Z,1028.59
2019-05-12T08:26:11.927Z,1028.5
2019-05-12T08:31:06.360Z,1028.54
2019-05-12T08:36:11.164Z,1028.62
2019-05-12T08:41:06.555Z,1028.64
2019-05-12T08:45:08.427Z,1028.72
2019-05-12T08:46:11.891Z,1028.72
2019-05-12T08:50:06.808Z,1028.81
2019-05-12T08:55:06.086Z,1028.89
2019-05-12T09:00:08.840Z,1028.87
2019-05-12T09:05:06.065Z,1028.95
2019-05-12T09:10:06.715Z,1028.97
2019-05-12T09:15:08.302Z,1028.99
2019-05-12T09:19:09.991Z,1028.98
2019-05-12T09:20:08.244Z,1028.98
2019-05-12T09:24:05.914Z,1029.01
2019-05-12T09:29:07.465Z,1029.01
2019-05-12T09:34:11.465Z,1029.02
2019-05-12T09:39:06.831Z,1029.03
2019-05-12T09:44:06.050Z,1029.05
2019-05-12T09:49:06.046Z,1029.05
2019-05-12T09:53:11.220Z,1029.13
2019-05-12T09:58:06.282Z,1029.1
2019-05-12T10:03:08.532Z,1029.04
2019-05-12T10:08:05.947Z,1029.1
2019-05-12T10:13:06.652Z,1029.06
2019-05-12T10:18:10.924Z,1029.03
2019-05-12T10:22:06.543Z,1029.11
2019-05-12T10:27:06.843Z,1029.11
2019-05-12T10:32:06.123Z,1029.12
2019-05-12T10:37:06.596Z,1029.28
2019-05-12T10:42:06.302Z,1029.34
2019-05-12T10:47:06.215Z,1029.34
2019-05-12T10:51:06.674Z,1029.41
2019-05-12T10:56:06.912Z,1029.44
2019-05-12T11:01:08.497Z,1029.45
2019-05-12T11:06:07.644Z,1029.42
2019-05-12T11:11:06.390Z,1029.62
2019-05-12T11:16:06.444Z,1029.48
2019-05-12T11:21:06.779Z,1029.35
2019-05-12T11:26:06.152Z,1029.38
2019-05-12T11:30:08.280Z,1029.47
2019-05-12T11:35:06.483Z,1029.47
2019-05-12T11:40:06.136Z,1029.6
2019-05-12T11:45:07.720Z,1029.48
2019-05-12T11:50:09.629Z,1029.58
2019-05-12T11:54:08.828Z,1029.67
2019-05-12T11:59:06.114Z,1029.59
2019-05-12T12:04:06.787Z,1029.63
2019-05-12T12:09:09.054Z,1029.73
2019-05-12T12:14:10.432Z,1029.8
2019-05-12T12:19:06.736Z,1029.73
2019-05-12T12:24:06.033Z,1029.76
2019-05-12T12:29:06.395Z,1029.91
2019-05-12T12:33:06.774Z,1029.93
2019-05-12T12:38:06.162Z,1029.85
2019-05-12T12:43:06.668Z,1030.11
2019-05-12T12:48:06.741Z,1029.94
2019-05-12T12:53:06.573Z,1029.99
2019-05-12T12:57:09.857Z,1029.97
2019-05-12T12:58:06.727Z,1029.97
2019-05-12T13:02:08.867Z,1029.97
2019-05-12T13:07:06.464Z,1030.13
2019-05-12T13:17:06.070Z,1030.26
2019-05-12T13:22:08.836Z,1030.26
2019-05-12T13:27:06.650Z,1030.29
2019-05-12T13:31:16.460Z,1030.23
2019-05-12T13:36:06.034Z,1030.27
2019-05-12T13:41:09.492Z,1030.24
2019-05-12T13:46:06.255Z,1030.34
2019-05-12T13:51:12.262Z,1030.38
2019-05-12T13:56:06.635Z,1030.39
2019-05-12T14:01:16.845Z,1030.46
2019-05-12T14:05:11.054Z,1030.67
2019-05-12T14:10:06.800Z,1030.51
2019-05-12T14:15:08.052Z,1030.67
2019-05-12T14:20:09.123Z,1030.6
2019-05-12T14:25:07.441Z,1030.53
2019-05-12T14:30:10.182Z,1030.65
2019-05-12T14:35:07.099Z,1030.81
2019-05-12T14:39:10.090Z,1030.85
2019-05-12T14:44:06.874Z,1030.79
2019-05-12T14:49:06.842Z,1030.78
2019-05-12T14:54:06.059Z,1030.74
2019-05-12T14:59:06.324Z,1030.78
2019-05-12T15:04:07.473Z,1030.7
2019-05-12T15:09:11.278Z,1030.71
2019-05-12T15:14:06.762Z,1030.64
2019-05-12T15:18:09.325Z,1030.84
2019-05-12T15:23:07.502Z,1030.84
2019-05-12T15:28:06.724Z,1030.9
2019-05-12T15:33:06.579Z,1030.92
2019-05-12T15:38:09.331Z,1030.98
2019-05-12T15:43:09.154Z,1030.96
2019-05-12T15:47:07.172Z,1031.01
2019-05-12T15:48:06.116Z,1031.01
2019-05-12T15:53:06.304Z,1030.98
2019-05-12T15:57:06.085Z,1031.04
2019-05-12T16:02:13.296Z,1031.03
2019-05-12T16:07:06.096Z,1031.1
2019-05-12T16:12:18.580Z,1031.07
2019-05-12T16:17:07.099Z,1031.11
2019-05-12T16:22:06.584Z,1031.09
2019-05-12T16:27:07.454Z,1031.17
2019-05-12T16:31:09.104Z,1031.23
2019-05-12T16:36:11.211Z,1031.33
2019-05-12T16:41:06.865Z,1031.2
2019-05-12T16:46:06.483Z,1031.34
2019-05-12T16:51:06.702Z,1031.38
2019-05-12T16:55:06.234Z,1031.52
2019-05-12T16:56:06.177Z,1031.52
2019-05-12T17:00:08.834Z,1031.55
2019-05-12T17:10:11.480Z,1031.67
2019-05-12T17:15:08.083Z,1031.68
2019-05-12T17:20:06.467Z,1031.68
2019-05-12T17:25:11.162Z,1031.67
2019-05-12T17:29:07.161Z,1031.84
2019-05-12T17:34:08.937Z,1031.85
2019-05-12T17:39:06.873Z,1031.91
2019-05-12T17:44:06.096Z,1031.94
2019-05-12T17:49:06.329Z,1031.96
2019-05-12T17:54:13.223Z,1032.02
2019-05-12T17:58:07.232Z,1032.05
2019-05-12T18:03:18.028Z,1032.17
2019-05-12T18:08:06.477Z,1032.3
2019-05-12T18:13:06.032Z,1032.3
2019-05-12T18:18:06.122Z,1032.35
2019-05-12T18:23:06.326Z,1032.4
2019-05-12T18:28:06.438Z,1032.54
2019-05-12T18:32:08.504Z,1032.59
2019-05-12T18:37:06.922Z,1032.69
2019-05-12T18:42:06.539Z,1032.79
2019-05-12T18:47:06.655Z,1032.82
2019-05-12T18:52:06.825Z,1032.94
2019-05-12T18:57:07.288Z,1032.92
2019-05-12T19:02:06.477Z,1033.05
2019-05-12T19:06:06.990Z,1033.12
2019-05-12T19:07:06.615Z,1033.12
2019-05-12T19:11:18.754Z,1033.17
2019-05-12T19:16:11.670Z,1033.29
2019-05-12T19:21:10.060Z,1033.47
2019-05-12T19:26:06.760Z,1033.49
2019-05-12T19:31:10.060Z,1033.59
2019-05-12T19:36:07.925Z,1033.66
2019-05-12T19:41:07.301Z,1033.72
2019-05-12T19:45:15.838Z,1033.78
2019-05-12T19:50:10.453Z,1033.86
2019-05-12T19:55:06.287Z,1033.91
2019-05-12T20:00:08.799Z,1033.92
2019-05-12T20:05:06.015Z,1034.1
2019-05-12T20:10:06.717Z,1034.15
2019-05-12T20:15:08.572Z,1034.22
2019-05-12T20:19:06.113Z,1034.25
2019-05-12T20:20:06.107Z,1034.25
2019-05-12T20:24:06.536Z,1034.34
2019-05-12T20:29:06.763Z,1034.4
2019-05-12T20:34:10.480Z,1034.52
2019-05-12T20:39:09.815Z,1034.58
2019-05-12T20:44:09.699Z,1034.53
2019-05-12T20:49:10.379Z,1034.55
2019-05-12T20:54:13.919Z,1034.62
2019-05-12T20:59:06.379Z,1034.65
2019-05-12T21:03:05.988Z,1034.69
2019-05-12T21:08:11.111Z,1034.75
2019-05-12T21:13:06.469Z,1034.83
2019-05-12T21:18:07.330Z,1034.83
2019-05-12T21:23:06.714Z,1034.87
2019-05-12T21:28:07.814Z,1034.92
2019-05-12T21:33:06.054Z,1034.97
2019-05-12T21:37:06.837Z,1034.96
2019-05-12T21:42:06.479Z,1035.03
2019-05-12T21:47:10.348Z,1035.05
2019-05-12T21:52:06.659Z,1035.11
2019-05-12T21:57:06.841Z,1035.09
2019-05-12T22:02:06.432Z,1035.12
2019-05-12T22:07:06.929Z,1035.23
2019-05-12T22:11:11.828Z,1035.28
2019-05-12T22:16:07.053Z,1035.31
2019-05-12T22:21:07.439Z,1035.32
2019-05-12T22:26:06.486Z,1035.37
2019-05-12T22:31:06.560Z,1035.42
2019-05-12T22:36:25.294Z,1035.43
2019-05-12T22:41:06.326Z,1035.49
2019-05-12T22:46:06.319Z,1035.54
2019-05-12T22:50:06.808Z,1035.55
2019-05-12T22:55:05.915Z,1035.59
2019-05-12T23:00:13.345Z,1035.63
2019-05-12T23:05:16.645Z,1035.7
2019-05-12T23:10:13.680Z,1035.68
2019-05-12T23:15:08.037Z,1035.82
2019-05-12T23:20:07.223Z,1035.84
2019-05-12T23:24:06.652Z,1035.85
2019-05-12T23:30:13.337Z,1035.88
2019-05-12T23:34:12.008Z,1035.88
2019-05-12T23:39:06.895Z,1035.92
2019-05-12T23:44:06.036Z,1035.93
2019-05-12T23:49:06.130Z,1035.96
2019-05-12T23:54:06.419Z,1035.92
2019-05-12T23:59:06.576Z,1035.99
